Earlysville, VA

8:17 AM EDT on September 23, 2014 (GMT -0400)
Beau Mont Farm | Change Station
CLOSE
Current Station
Personal Weather Station
Location: Beau Mont Farm, VA
Elevation: 574 ft
Nearby Weather Stations

Elev 574 ft 38.12 °N, 78.53 °W | Updated 2 minutes ago

Clear
Clear
47.0 °F
Feels Like 47 °F
N
0.0
Wind Variable Wind from SE
Gusts 0.0 mph

Today
High -- | Low -- °F
--% Chance of Precip.
Yesterday
High -- | Low -- °F
Precip. -- in
7:02 AM 7:09 PM
Waning Crescent, 1% visible
Pressure 30.32 in
Visibility 10.0 miles
Clouds Clear
Windchill 47 °F
Dew Point 46 °F
Humidity 95%
Rainfall 0.00 in
Snow Depth Not available.
UV 0 out of 12
Pollen 5.00 out of 12
Air Quality Not available.
Flu Activity Not available.
METAR KCHO 231153Z 35004KT 10SM CLR 09/07 A3033 RMK AO2 SLP267 T00940067 10128 20078 53018

More Conditions Fewer Conditions

Pressure 30.32 in
Visibility 10.0 miles
Clouds Clear
Windchill 47 °F
Dew Point 46 °F
Humidity 95%
Rainfall 0.00 in
Snow Depth Not available.
UV 0 out of 12
Pollen 5.00 out of 12
Air Quality Not available.
Flu Activity Not available.
METAR KCHO 231153Z 35004KT 10SM CLR 09/07 A3033 RMK AO2 SLP267 T00940067 10128 20078 53018

More Conditions Fewer Conditions

10-Day Weather Forecast

Almanac

Astronomy

Sep. 23, 2014 Rise Set
Actual Time 7:02 AM EDT 7:09 PM EDT
Civil Twilight 6:36 AM EDT 7:35 PM EDT
Nautical Twilight 6:05 AM EDT 8:06 PM EDT
Astronomical Twilight 5:34 AM EDT 8:37 PM EDT
Moon 6:25 AM EDT 6:47 PM EDT
Length of Visible Light 12h 59m
Length of Day
12h 06m
Tomorrow will be 2m 27s shorter.
Waning Crescent, 1% of the Moon is Illuminated
Today
Waning Crescent
Sep 24
New
Oct 1
First Quarter
Oct 8
Full
Oct 15
Last Quarter

Today's Extremes

State Highs State Lows

Community

WunderPhotos

Upload Photos

1,755,659 photos uploaded!

WunderBlogs® & News

Nearby

Snow Depth

Station Depth Elevation
No new snow has been reported.

Earthquake Activity

City Distance Mag. Time & Date
No recent earthquake activity has been reported nearby.
Minimum magnitude displayed is 2.5.

Coastal Water Temperatures

Place Temperature
No Stations Reporting

Nearby Weather Stations